Time,TemperatureF,DewpointF,PressureIn,WindDirection,WindDirectionDegrees,WindSpeedMPH,WindSpeedGustMPH,Humidity,HourlyPrecipIn,Conditions,Clouds,dailyrainin,SoftwareType,DateUTC
2013-12-29 00:04:00,24.3,18.7,30.52,WSW,248,0.0,1.0,79,0.00,,,0.00,WeatherTracker,2013-12-29 08:04:00,
2013-12-29 00:09:00,23.7,18.2,30.51,NNW,348,0.0,1.0,79,0.00,,,0.00,WeatherTracker,2013-12-29 08:09:00,
2013-12-29 00:14:00,23.9,18.9,30.51,North,355,0.0,1.0,81,0.00,,,0.00,WeatherTracker,2013-12-29 08:14:00,
2013-12-29 00:19:00,23.9,18.9,30.52,North,355,0.0,2.0,81,0.00,,,0.00,WeatherTracker,2013-12-29 08:19:00,
2013-12-29 00:24:00,23.6,18.4,30.52,East,94,0.0,2.0,80,0.00,,,0.00,WeatherTracker,2013-12-29 08:24:00,
2013-12-29 00:29:00,22.9,18.0,30.52,NNE,26,0.0,0.0,81,0.00,,,0.00,WeatherTracker,2013-12-29 08:29:00,
2013-12-29 00:34:00,22.5,18.1,30.52,NNE,26,0.0,0.0,83,0.00,,,0.00,WeatherTracker,2013-12-29 08:34:00,
2013-12-29 00:39:00,22.6,18.2,30.52,NNE,26,0.0,0.0,83,0.00,,,0.00,WeatherTracker,2013-12-29 08:39:00,
2013-12-29 00:44:00,22.6,17.9,30.52,NNE,26,0.0,0.0,82,0.00,,,0.00,WeatherTracker,2013-12-29 08:44:00,
2013-12-29 00:49:00,22.4,18.0,30.51,NNE,26,0.0,0.0,83,0.00,,,0.00,WeatherTracker,2013-12-29 08:49:00,
2013-12-29 00:54:00,22.4,18.0,30.52,NNE,26,0.0,0.0,83,0.00,,,0.00,WeatherTracker,2013-12-29 08:54:00,
2013-12-29 00:59:00,22.2,17.8,30.52,NNE,26,0.0,0.0,83,0.00,,,0.00,WeatherTracker,2013-12-29 08:59:00,
2013-12-29 01:04:00,21.8,17.4,30.51,NNE,26,0.0,0.0,83,0.00,,,0.00,WeatherTracker,2013-12-29 09:04:00,
2013-12-29 01:09:00,21.4,17.3,30.51,NNE,25,0.0,0.0,84,0.00,,,0.00,WeatherTracker,2013-12-29 09:09:00,
2013-12-29 01:14:00,21.3,17.0,30.51,NNE,25,0.0,0.0,83,0.00,,,0.00,WeatherTracker,2013-12-29 09:14:00,
2013-12-29 01:19:00,20.9,16.8,30.50,NNE,25,0.0,0.0,84,0.00,,,0.00,WeatherTracker,2013-12-29 09:19:00,
2013-12-29 01:24:00,20.8,17.0,30.50,NNE,25,0.0,0.0,85,0.00,,,0.00,WeatherTracker,2013-12-29 09:24:00,
2013-12-29 01:29:00,20.6,16.8,30.50,NNE,25,0.0,0.0,85,0.00,,,0.00,WeatherTracker,2013-12-29 09:29:00,
2013-12-29 01:35:00,20.7,17.2,30.51,NNE,25,0.0,0.0,86,0.00,,,0.00,WeatherTracker,2013-12-29 09:35:00,
2013-12-29 01:40:00,20.7,16.9,30.51,NNE,25,0.0,0.0,85,0.00,,,0.00,WeatherTracker,2013-12-29 09:40:00,
2013-12-29 01:45:00,20.3,16.5,30.51,North,10,0.0,0.0,85,0.00,,,0.00,WeatherTracker,2013-12-29 09:45:00,
2013-12-29 01:50:00,20.5,17.0,30.51,North,10,0.0,0.0,86,0.00,,,0.00,WeatherTracker,2013-12-29 09:50:00,
2013-12-29 01:55:00,20.7,17.2,30.51,North,10,0.0,0.0,86,0.00,,,0.00,WeatherTracker,2013-12-29 09:55:00,
2013-12-29 02:00:00,20.4,16.6,30.51,North,10,0.0,0.0,85,0.00,,,0.00,WeatherTracker,2013-12-29 10:00:00,
2013-12-29 02:05:00,19.9,16.4,30.51,North,10,0.0,0.0,86,0.00,,,0.00,WeatherTracker,2013-12-29 10:05:00,
2013-12-29 02:10:00,20.0,17.3,30.51,North,10,0.0,0.0,89,0.00,,,0.00,WeatherTracker,2013-12-29 10:10:00,
2013-12-29 02:15:00,20.2,17.0,30.51,North,10,0.0,0.0,87,0.00,,,0.00,WeatherTracker,2013-12-29 10:15:00,
2013-12-29 02:20:00,20.1,16.9,30.51,North,10,0.0,0.0,87,0.00,,,0.00,WeatherTracker,2013-12-29 10:20:00,
2013-12-29 02:25:00,19.9,16.9,30.51,North,10,0.0,0.0,88,0.00,,,0.00,WeatherTracker,2013-12-29 10:25:00,
2013-12-29 02:30:00,20.0,17.3,30.51,North,10,0.0,0.0,89,0.00,,,0.00,WeatherTracker,2013-12-29 10:30:00,
2013-12-29 02:35:00,19.7,16.7,30.51,North,10,0.0,0.0,88,0.00,,,0.00,WeatherTracker,2013-12-29 10:35:00,
2013-12-29 02:40:00,19.3,16.3,30.51,North,10,0.0,0.0,88,0.00,,,0.00,WeatherTracker,2013-12-29 10:40:00,
2013-12-29 02:45:00,18.8,15.6,30.51,North,10,0.0,0.0,87,0.00,,,0.00,WeatherTracker,2013-12-29 10:45:00,
2013-12-29 02:50:00,19.0,16.3,30.51,North,10,0.0,0.0,89,0.00,,,0.00,WeatherTracker,2013-12-29 10:50:00,
2013-12-29 02:55:00,19.0,16.3,30.51,North,10,0.0,0.0,89,0.00,,,0.00,WeatherTracker,2013-12-29 10:55:00,
2013-12-29 03:00:00,18.6,15.6,30.51,North,10,0.0,0.0,88,0.00,,,0.00,WeatherTracker,2013-12-29 11:00:00,
2013-12-29 03:05:00,18.3,15.6,30.51,North,10,0.0,0.0,89,0.00,,,0.00,WeatherTracker,2013-12-29 11:05:00,
2013-12-29 03:10:00,18.8,16.6,30.51,North,10,0.0,0.0,91,0.00,,,0.00,WeatherTracker,2013-12-29 11:10:00,
2013-12-29 03:15:00,19.2,17.0,30.51,North,10,0.0,0.0,91,0.00,,,0.00,WeatherTracker,2013-12-29 11:15:00,
2013-12-29 03:20:00,19.6,16.6,30.52,North,10,0.0,0.0,88,0.00,,,0.00,WeatherTracker,2013-12-29 11:20:00,
2013-12-29 03:25:00,19.3,16.6,30.52,North,9,0.0,0.0,89,0.00,,,0.00,WeatherTracker,2013-12-29 11:25:00,
2013-12-29 03:30:00,19.6,16.6,30.52,North,9,0.0,0.0,88,0.00,,,0.00,WeatherTracker,2013-12-29 11:30:00,
2013-12-29 03:36:00,19.6,16.6,30.52,North,9,0.0,0.0,88,0.00,,,0.00,WeatherTracker,2013-12-29 11:36:00,
2013-12-29 03:41:00,19.6,16.6,30.51,North,9,0.0,0.0,88,0.00,,,0.00,WeatherTracker,2013-12-29 11:41:00,
2013-12-29 03:46:00,19.1,15.9,30.51,North,9,0.0,0.0,87,0.00,,,0.00,WeatherTracker,2013-12-29 11:46:00,
2013-12-29 03:51:00,18.8,15.6,30.51,North,9,0.0,0.0,87,0.00,,,0.00,WeatherTracker,2013-12-29 11:51:00,
2013-12-29 03:56:00,18.9,16.2,30.52,North,9,0.0,0.0,89,0.00,,,0.00,WeatherTracker,2013-12-29 11:56:00,
2013-12-29 04:01:00,18.7,15.5,30.52,North,9,0.0,0.0,87,0.00,,,0.00,WeatherTracker,2013-12-29 12:01:00,
2013-12-29 04:06:00,18.1,15.2,30.52,North,9,0.0,0.0,88,0.00,,,0.00,WeatherTracker,2013-12-29 12:06:00,
2013-12-29 04:11:00,17.7,15.0,30.52,North,9,0.0,0.0,89,0.00,,,0.00,WeatherTracker,2013-12-29 12:11:00,
2013-12-29 04:16:00,17.5,14.8,30.52,North,9,0.0,0.0,89,0.00,,,0.00,WeatherTracker,2013-12-29 12:16:00,
2013-12-29 04:21:00,17.3,15.1,30.52,North,9,0.0,0.0,91,0.00,,,0.00,WeatherTracker,2013-12-29 12:21:00,
2013-12-29 04:26:00,17.2,14.8,30.53,North,9,0.0,0.0,90,0.00,,,0.00,WeatherTracker,2013-12-29 12:26:00,
2013-12-29 04:31:00,17.0,14.6,30.53,North,9,0.0,0.0,90,0.00,,,0.00,WeatherTracker,2013-12-29 12:31:00,
2013-12-29 04:36:00,17.3,15.1,30.53,North,9,0.0,0.0,91,0.00,,,0.00,WeatherTracker,2013-12-29 12:36:00,
2013-12-29 04:41:00,17.3,14.9,30.53,North,9,0.0,0.0,90,0.00,,,0.00,WeatherTracker,2013-12-29 12:41:00,
2013-12-29 04:46:00,17.4,15.2,30.52,North,9,0.0,0.0,91,0.00,,,0.00,WeatherTracker,2013-12-29 12:46:00,
2013-12-29 04:51:00,17.5,15.1,30.52,North,9,0.0,0.0,90,0.00,,,0.00,WeatherTracker,2013-12-29 12:51:00,
2013-12-29 04:56:00,17.1,14.7,30.52,North,9,0.0,0.0,90,0.00,,,0.00,WeatherTracker,2013-12-29 12:56:00,
2013-12-29 05:01:00,17.1,14.9,30.52,North,9,0.0,0.0,91,0.00,,,0.00,WeatherTracker,2013-12-29 13:01:00,
2013-12-29 05:06:00,16.8,14.6,30.52,North,9,0.0,0.0,91,0.00,,,0.00,WeatherTracker,2013-12-29 13:06:00,
2013-12-29 05:12:00,16.4,13.5,30.52,North,9,0.0,0.0,88,0.00,,,0.00,WeatherTracker,2013-12-29 13:12:00,
2013-12-29 05:17:00,15.9,13.5,30.52,North,9,0.0,0.0,90,0.00,,,0.00,WeatherTracker,2013-12-29 13:17:00,
2013-12-29 05:22:00,15.9,13.7,30.52,North,9,0.0,0.0,91,0.00,,,0.00,WeatherTracker,2013-12-29 13:22:00,
2013-12-29 05:27:00,16.5,14.8,30.52,North,9,0.0,0.0,93,0.00,,,0.00,WeatherTracker,2013-12-29 13:27:00,
2013-12-29 05:32:00,16.6,14.4,30.53,North,9,0.0,0.0,91,0.00,,,0.00,WeatherTracker,2013-12-29 13:32:00,
2013-12-29 05:37:00,16.7,14.5,30.53,North,9,0.0,0.0,91,0.00,,,0.00,WeatherTracker,2013-12-29 13:37:00,
2013-12-29 05:42:00,16.6,14.4,30.53,North,9,0.0,0.0,91,0.00,,,0.00,WeatherTracker,2013-12-29 13:42:00,
2013-12-29 05:47:00,16.7,14.5,30.53,North,9,0.0,0.0,91,0.00,,,0.00,WeatherTracker,2013-12-29 13:47:00,
2013-12-29 05:52:00,16.3,13.9,30.54,North,9,0.0,0.0,90,0.00,,,0.00,WeatherTracker,2013-12-29 13:52:00,
2013-12-29 05:57:00,16.4,14.5,30.53,North,9,0.0,0.0,92,0.00,,,0.00,WeatherTracker,2013-12-29 13:57:00,
2013-12-29 06:02:00,16.8,14.9,30.54,North,9,0.0,0.0,92,0.00,,,0.00,WeatherTracker,2013-12-29 14:02:00,
2013-12-29 06:07:00,16.9,14.7,30.53,North,9,0.0,0.0,91,0.00,,,0.00,WeatherTracker,2013-12-29 14:07:00,
2013-12-29 06:12:00,16.8,14.4,30.53,North,9,0.0,0.0,90,0.00,,,0.00,WeatherTracker,2013-12-29 14:12:00,
2013-12-29 06:17:00,16.6,14.2,30.53,North,9,0.0,0.0,90,0.00,,,0.00,WeatherTracker,2013-12-29 14:17:00,
2013-12-29 06:22:00,16.0,13.3,30.54,North,9,0.0,0.0,89,0.00,,,0.00,WeatherTracker,2013-12-29 14:22:00,
2013-12-29 06:27:00,15.0,11.8,30.54,WSW,258,0.0,0.0,87,0.00,,,0.00,WeatherTracker,2013-12-29 14:27:00,
2013-12-29 06:32:00,14.2,11.3,30.54,WSW,258,0.0,1.0,88,0.00,,,0.00,WeatherTracker,2013-12-29 14:32:00,
2013-12-29 06:37:00,14.0,11.9,30.54,WSW,258,0.0,1.0,91,0.00,,,0.00,WeatherTracker,2013-12-29 14:37:00,
2013-12-29 06:42:00,14.0,11.9,30.54,WSW,258,0.0,0.0,91,0.00,,,0.00,WeatherTracker,2013-12-29 14:42:00,
2013-12-29 06:47:00,14.1,12.2,30.55,WSW,258,0.0,0.0,92,0.00,,,0.00,WeatherTracker,2013-12-29 14:47:00,
2013-12-29 06:52:00,14.1,12.5,30.55,WSW,258,0.0,0.0,93,0.00,,,0.00,WeatherTracker,2013-12-29 14:52:00,
2013-12-29 06:58:00,14.1,12.5,30.55,WSW,258,0.0,0.0,93,0.00,,,0.00,WeatherTracker,2013-12-29 14:58:00,
2013-12-29 07:03:00,14.5,13.1,30.55,WSW,258,0.0,0.0,94,0.00,,,0.00,WeatherTracker,2013-12-29 15:03:00,
2013-12-29 07:08:00,14.7,13.3,30.55,WSW,258,0.0,0.0,94,0.00,,,0.00,WeatherTracker,2013-12-29 15:08:00,
2013-12-29 07:13:00,14.2,12.1,30.54,WSW,258,0.0,0.0,91,0.00,,,0.00,WeatherTracker,2013-12-29 15:13:00,
2013-12-29 07:18:00,14.1,12.2,30.55,WSW,258,0.0,0.0,92,0.00,,,0.00,WeatherTracker,2013-12-29 15:18:00,
2013-12-29 07:23:00,14.6,13.2,30.55,WSW,258,0.0,0.0,94,0.00,,,0.00,WeatherTracker,2013-12-29 15:23:00,
2013-12-29 07:28:00,14.9,13.5,30.55,North,358,0.0,0.0,94,0.00,,,0.00,WeatherTracker,2013-12-29 15:28:00,
2013-12-29 07:33:00,15.2,13.3,30.55,North,360,0.0,1.0,92,0.00,,,0.00,WeatherTracker,2013-12-29 15:33:00,
2013-12-29 07:38:00,15.5,13.6,30.55,North,360,0.0,1.0,92,0.00,,,0.00,WeatherTracker,2013-12-29 15:38:00,
2013-12-29 07:43:00,16.2,14.5,30.55,North,360,0.0,1.0,93,0.00,,,0.00,WeatherTracker,2013-12-29 15:43:00,
2013-12-29 07:48:00,17.0,15.3,30.55,North,360,0.0,1.0,93,0.00,,,0.00,WeatherTracker,2013-12-29 15:48:00,
2013-12-29 07:53:00,18.1,16.2,30.55,North,360,0.0,1.0,92,0.00,,,0.00,WeatherTracker,2013-12-29 15:53:00,
2013-12-29 07:58:00,18.8,16.4,30.55,North,360,0.0,0.0,90,0.00,,,0.00,WeatherTracker,2013-12-29 15:58:00,
2013-12-29 08:03:00,18.9,16.2,30.55,SSE,157,0.0,1.0,89,0.00,,,0.00,WeatherTracker,2013-12-29 16:03:00,
2013-12-29 08:08:00,18.1,14.9,30.55,SSE,157,0.0,1.0,87,0.00,,,0.00,WeatherTracker,2013-12-29 16:08:00,
2013-12-29 08:13:00,18.7,16.3,30.55,SSE,157,0.0,1.0,90,0.00,,,0.00,WeatherTracker,2013-12-29 16:13:00,
2013-12-29 08:18:00,19.8,16.8,30.55,SSE,157,0.0,0.0,88,0.00,,,0.00,WeatherTracker,2013-12-29 16:18:00,
2013-12-29 08:23:00,19.8,16.3,30.56,South,179,0.0,0.0,86,0.00,,,0.00,WeatherTracker,2013-12-29 16:23:00,
2013-12-29 08:28:00,20.1,16.9,30.56,South,179,0.0,0.0,87,0.00,,,0.00,WeatherTracker,2013-12-29 16:28:00,
2013-12-29 08:33:00,20.5,17.0,30.56,South,177,0.0,0.0,86,0.00,,,0.00,WeatherTracker,2013-12-29 16:33:00,
2013-12-29 08:38:00,20.2,16.7,30.55,South,177,0.0,1.0,86,0.00,,,0.00,WeatherTracker,2013-12-29 16:38:00,
2013-12-29 08:43:00,20.6,17.4,30.55,South,178,1.0,1.0,87,0.00,,,0.00,WeatherTracker,2013-12-29 16:43:00,
2013-12-29 08:48:00,21.1,18.1,30.55,SW,227,0.0,1.0,88,0.00,,,0.00,WeatherTracker,2013-12-29 16:48:00,
2013-12-29 08:53:00,22.0,18.7,30.55,SW,227,0.0,1.0,87,0.00,,,0.00,WeatherTracker,2013-12-29 16:53:00,
2013-12-29 08:58:00,23.2,19.9,30.55,SW,227,0.0,1.0,87,0.00,,,0.00,WeatherTracker,2013-12-29 16:58:00,
2013-12-29 09:04:00,24.1,20.0,30.55,South,182,0.0,0.0,84,0.00,,,0.00,WeatherTracker,2013-12-29 17:04:00,
2013-12-29 09:09:00,24.0,19.9,30.54,South,182,0.0,1.0,84,0.00,,,0.00,WeatherTracker,2013-12-29 17:09:00,
2013-12-29 09:14:00,24.4,19.7,30.54,South,182,0.0,1.0,82,0.00,,,0.00,WeatherTracker,2013-12-29 17:14:00,
2013-12-29 09:19:00,24.5,20.1,30.54,SSE,162,0.0,1.0,83,0.00,,,0.00,WeatherTracker,2013-12-29 17:19:00,
2013-12-29 09:24:00,24.6,20.5,30.55,SE,133,1.0,1.0,84,0.00,,,0.00,WeatherTracker,2013-12-29 17:24:00,
2013-12-29 09:29:00,24.6,20.5,30.55,SE,142,2.0,2.0,84,0.00,,,0.00,WeatherTracker,2013-12-29 17:29:00,
2013-12-29 09:34:00,24.7,20.6,30.55,ESE,110,1.0,2.0,84,0.00,,,0.00,WeatherTracker,2013-12-29 17:34:00,
2013-12-29 09:39:00,24.9,20.8,30.55,ESE,123,1.0,2.0,84,0.00,,,0.00,WeatherTracker,2013-12-29 17:39:00,
2013-12-29 09:44:00,25.2,21.1,30.56,SE,131,2.0,2.0,84,0.00,,,0.00,WeatherTracker,2013-12-29 17:44:00,
2013-12-29 09:49:00,25.8,22.2,30.56,ESE,102,2.0,2.0,86,0.00,,,0.00,WeatherTracker,2013-12-29 17:49:00,
2013-12-29 09:54:00,26.5,21.8,30.56,SE,127,1.0,3.0,82,0.00,,,0.00,WeatherTracker,2013-12-29 17:54:00,
2013-12-29 09:59:00,26.9,21.6,30.55,SE,127,2.0,3.0,80,0.00,,,0.00,WeatherTracker,2013-12-29 17:59:00,
2013-12-29 10:04:00,27.0,22.0,30.55,SE,135,2.0,3.0,81,0.00,,,0.00,WeatherTracker,2013-12-29 18:04:00,
2013-12-29 10:09:00,27.2,21.3,30.55,SE,133,0.0,4.0,78,0.00,,,0.00,WeatherTracker,2013-12-29 18:09:00,
2013-12-29 10:14:00,28.0,22.0,30.55,ESE,112,1.0,4.0,78,0.00,,,0.00,WeatherTracker,2013-12-29 18:14:00,
2013-12-29 10:19:00,28.2,21.6,30.55,SE,142,1.0,2.0,76,0.00,,,0.00,WeatherTracker,2013-12-29 18:19:00,
2013-12-29 10:24:00,28.4,22.1,30.55,ESE,120,1.0,3.0,77,0.00,,,0.00,WeatherTracker,2013-12-29 18:24:00,
2013-12-29 10:29:00,28.9,22.3,30.54,SSE,151,1.0,3.0,76,0.00,,,0.00,WeatherTracker,2013-12-29 18:29:00,
2013-12-29 10:34:00,29.3,22.7,30.54,East,97,1.0,3.0,76,0.00,,,0.00,WeatherTracker,2013-12-29 18:34:00,
2013-12-29 10:39:00,30.0,23.4,30.55,ESE,121,0.0,3.0,76,0.00,,,0.00,WeatherTracker,2013-12-29 18:39:00,
2013-12-29 10:44:00,30.6,23.3,30.55,SE,125,1.0,3.0,74,0.00,,,0.00,WeatherTracker,2013-12-29 18:44:00,
2013-12-29 10:49:00,31.1,23.8,30.54,SE,131,0.0,2.0,74,0.00,,,0.00,WeatherTracker,2013-12-29 18:49:00,
2013-12-29 10:54:00,31.5,23.5,30.55,SE,142,1.0,2.0,72,0.00,,,0.00,WeatherTracker,2013-12-29 18:54:00,
2013-12-29 10:59:00,32.1,23.8,30.54,ESE,113,1.0,2.0,71,0.00,,,0.00,WeatherTracker,2013-12-29 18:59:00,
2013-12-29 11:04:00,32.3,23.6,30.54,NE,40,0.0,2.0,70,0.00,,,0.00,WeatherTracker,2013-12-29 19:04:00,
2013-12-29 11:09:00,32.8,23.4,30.53,ESE,108,0.0,2.0,68,0.00,,,0.00,WeatherTracker,2013-12-29 19:09:00,
2013-12-29 11:15:00,33.5,23.4,30.53,ESE,123,1.0,2.0,66,0.00,,,0.00,WeatherTracker,2013-12-29 19:15:00,
2013-12-29 11:20:00,33.6,23.5,30.53,SE,142,2.0,2.0,66,0.00,,,0.00,WeatherTracker,2013-12-29 19:20:00,
2013-12-29 11:25:00,33.8,23.7,30.53,ESE,121,2.0,3.0,66,0.00,,,0.00,WeatherTracker,2013-12-29 19:25:00,
2013-12-29 11:30:00,34.1,23.9,30.52,South,189,0.0,3.0,66,0.00,,,0.00,WeatherTracker,2013-12-29 19:30:00,
2013-12-29 11:35:00,34.4,24.2,30.52,South,182,1.0,2.0,66,0.00,,,0.00,WeatherTracker,2013-12-29 19:35:00,
2013-12-29 11:40:00,34.6,24.1,30.52,SSE,152,1.0,2.0,65,0.00,,,0.00,WeatherTracker,2013-12-29 19:40:00,
2013-12-29 11:45:00,35.2,24.6,30.51,South,189,1.0,2.0,65,0.00,,,0.00,WeatherTracker,2013-12-29 19:45:00,
2013-12-29 11:50:00,36.1,25.5,30.51,SSE,167,0.0,1.0,65,0.00,,,0.00,WeatherTracker,2013-12-29 19:50:00,
2013-12-29 11:55:00,36.5,25.9,30.51,SE,127,1.0,2.0,65,0.00,,,0.00,WeatherTracker,2013-12-29 19:55:00,
2013-12-29 12:00:00,36.8,25.0,30.51,SSE,162,1.0,3.0,62,0.00,,,0.00,WeatherTracker,2013-12-29 20:00:00,
2013-12-29 12:05:00,37.2,24.6,30.50,NNW,333,0.0,3.0,60,0.00,,,0.00,WeatherTracker,2013-12-29 20:05:00,
2013-12-29 12:10:00,38.4,24.9,30.50,NNW,330,2.0,3.0,58,0.00,,,0.00,WeatherTracker,2013-12-29 20:10:00,
2013-12-29 12:15:00,38.2,24.3,30.50,NNW,329,2.0,6.0,57,0.00,,,0.00,WeatherTracker,2013-12-29 20:15:00,
2013-12-29 12:20:00,37.9,24.5,30.50,NW,325,0.0,6.0,58,0.00,,,0.00,WeatherTracker,2013-12-29 20:20:00,
2013-12-29 12:25:00,38.3,24.8,30.49,NW,314,4.0,5.0,58,0.00,,,0.00,WeatherTracker,2013-12-29 20:25:00,
2013-12-29 12:30:00,38.3,24.8,30.49,NW,311,0.0,6.0,58,0.00,,,0.00,WeatherTracker,2013-12-29 20:30:00,
2013-12-29 12:35:00,38.3,24.4,30.49,NNW,340,0.0,6.0,57,0.00,,,0.00,WeatherTracker,2013-12-29 20:35:00,
2013-12-29 12:40:00,38.6,24.7,30.48,NNW,340,1.0,5.0,57,0.00,,,0.00,WeatherTracker,2013-12-29 20:40:00,
2013-12-29 12:45:00,39.1,24.7,30.48,NNW,341,2.0,3.0,56,0.00,,,0.00,WeatherTracker,2013-12-29 20:45:00,
2013-12-29 12:50:00,39.8,24.5,30.48,NNW,341,3.0,4.0,54,0.00,,,0.00,WeatherTracker,2013-12-29 20:50:00,
2013-12-29 12:55:00,40.0,24.7,30.48,North,352,0.0,4.0,54,0.00,,,0.00,WeatherTracker,2013-12-29 20:55:00,
2013-12-29 13:00:00,40.1,24.8,30.47,North,356,0.0,4.0,54,0.00,,,0.00,WeatherTracker,2013-12-29 21:00:00,
2013-12-29 13:05:00,40.7,24.9,30.47,North,356,3.0,3.0,53,0.00,,,0.00,WeatherTracker,2013-12-29 21:05:00,
2013-12-29 13:11:00,40.7,24.9,30.47,North,356,0.0,4.0,53,0.00,,,0.00,WeatherTracker,2013-12-29 21:11:00,
2013-12-29 13:16:00,41.4,25.1,30.46,North,349,3.0,4.0,52,0.00,,,0.00,WeatherTracker,2013-12-29 21:16:00,
2013-12-29 13:21:00,41.6,24.4,30.46,NW,316,2.0,4.0,50,0.00,,,0.00,WeatherTracker,2013-12-29 21:21:00,
2013-12-29 13:26:00,41.8,25.0,30.46,NW,316,0.0,4.0,51,0.00,,,0.00,WeatherTracker,2013-12-29 21:26:00,
2013-12-29 13:31:00,42.4,25.1,30.46,NW,318,0.0,2.0,50,0.00,,,0.00,WeatherTracker,2013-12-29 21:31:00,
2013-12-29 13:36:00,42.7,24.9,30.46,NW,318,3.0,3.0,49,0.00,,,0.00,WeatherTracker,2013-12-29 21:36:00,
2013-12-29 13:41:00,42.0,24.7,30.45,NW,318,1.0,4.0,50,0.00,,,0.00,WeatherTracker,2013-12-29 21:41:00,
2013-12-29 13:46:00,42.6,25.3,30.45,NW,318,1.0,4.0,50,0.00,,,0.00,WeatherTracker,2013-12-29 21:46:00,
2013-12-29 13:51:00,43.2,25.3,30.45,NW,318,1.0,2.0,49,0.00,,,0.00,WeatherTracker,2013-12-29 21:51:00,
2013-12-29 13:56:00,43.0,25.2,30.45,NW,322,2.0,4.0,49,0.00,,,0.00,WeatherTracker,2013-12-29 21:56:00,
2013-12-29 14:01:00,42.7,25.4,30.45,NW,320,1.0,5.0,50,0.00,,,0.00,WeatherTracker,2013-12-29 22:01:00,
2013-12-29 14:06:00,42.3,25.0,30.45,NW,323,3.0,5.0,50,0.00,,,0.00,WeatherTracker,2013-12-29 22:06:00,
2013-12-29 14:11:00,41.9,25.1,30.45,NW,323,3.0,4.0,51,0.00,,,0.00,WeatherTracker,2013-12-29 22:11:00,
2013-12-29 14:16:00,42.3,25.0,30.45,NW,324,0.0,4.0,50,0.00,,,0.00,WeatherTracker,2013-12-29 22:16:00,
2013-12-29 14:21:00,43.4,25.0,30.45,NW,322,1.0,4.0,48,0.00,,,0.00,WeatherTracker,2013-12-29 22:21:00,
2013-12-29 14:26:00,43.4,25.5,30.45,NW,323,2.0,4.0,49,0.00,,,0.00,WeatherTracker,2013-12-29 22:26:00,
2013-12-29 14:31:00,43.3,24.4,30.44,NW,313,1.0,4.0,47,0.00,,,0.00,WeatherTracker,2013-12-29 22:31:00,
2013-12-29 14:36:00,43.3,24.9,30.45,NW,312,1.0,3.0,48,0.00,,,0.00,WeatherTracker,2013-12-29 22:36:00,
2013-12-29 14:41:00,43.2,24.9,30.44,NW,312,0.0,4.0,48,0.00,,,0.00,WeatherTracker,2013-12-29 22:41:00,
2013-12-29 14:46:00,43.1,25.3,30.44,NW,312,0.0,4.0,49,0.00,,,0.00,WeatherTracker,2013-12-29 22:46:00,
2013-12-29 14:51:00,42.8,25.0,30.44,NW,312,0.0,3.0,49,0.00,,,0.00,WeatherTracker,2013-12-29 22:51:00,
2013-12-29 14:56:00,42.5,24.7,30.44,NW,312,0.0,3.0,49,0.00,,,0.00,WeatherTracker,2013-12-29 22:56:00,
2013-12-29 15:02:00,42.6,25.3,30.44,NW,312,0.0,3.0,50,0.00,,,0.00,WeatherTracker,2013-12-29 23:02:00,
2013-12-29 15:07:00,42.8,25.0,30.44,NW,312,0.0,3.0,49,0.00,,,0.00,WeatherTracker,2013-12-29 23:07:00,
2013-12-29 15:12:00,43.1,25.3,30.44,NW,312,0.0,0.0,49,0.00,,,0.00,WeatherTracker,2013-12-29 23:12:00,
2013-12-29 15:17:00,42.8,25.0,30.45,NW,312,2.0,0.0,49,0.00,,,0.00,WeatherTracker,2013-12-29 23:17:00,
2013-12-29 15:22:00,42.2,24.9,30.45,NW,312,2.0,3.0,50,0.00,,,0.00,WeatherTracker,2013-12-29 23:22:00,
2013-12-29 15:27:00,41.8,25.5,30.45,NW,312,2.0,3.0,52,0.00,,,0.00,WeatherTracker,2013-12-29 23:27:00,
2013-12-29 15:32:00,41.5,25.7,30.45,NW,312,1.0,3.0,53,0.00,,,0.00,WeatherTracker,2013-12-29 23:32:00,
2013-12-29 15:37:00,41.1,24.8,30.45,NW,312,0.0,3.0,52,0.00,,,0.00,WeatherTracker,2013-12-29 23:37:00,
2013-12-29 15:42:00,40.9,25.1,30.45,NW,312,0.0,2.0,53,0.00,,,0.00,WeatherTracker,2013-12-29 23:42:00,
2013-12-29 15:47:00,40.6,25.3,30.45,NW,312,0.0,1.0,54,0.00,,,0.00,WeatherTracker,2013-12-29 23:47:00,
2013-12-29 15:52:00,40.1,26.1,30.45,NW,312,0.0,0.0,57,0.00,,,0.00,WeatherTracker,2013-12-29 23:52:00,
2013-12-29 15:57:00,39.6,25.6,30.45,NW,312,0.0,0.0,57,0.00,,,0.00,WeatherTracker,2013-12-29 23:57:00,
2013-12-29 16:02:00,39.2,25.7,30.44,NW,312,0.0,0.0,58,0.00,,,0.00,WeatherTracker,2013-12-30 00:02:00,
2013-12-29 16:07:00,38.9,25.4,30.45,NW,312,0.0,0.0,58,0.00,,,0.00,WeatherTracker,2013-12-30 00:07:00,
2013-12-29 16:12:00,38.6,25.5,30.45,NW,312,0.0,0.0,59,0.00,,,0.00,WeatherTracker,2013-12-30 00:12:00,
2013-12-29 16:17:00,38.2,25.6,30.45,NW,312,0.0,0.0,60,0.00,,,0.00,WeatherTracker,2013-12-30 00:17:00,
2013-12-29 16:22:00,37.7,25.5,30.45,NW,312,0.0,0.0,61,0.00,,,0.00,WeatherTracker,2013-12-30 00:22:00,
2013-12-29 16:27:00,37.0,25.2,30.45,NW,312,0.0,0.0,62,0.00,,,0.00,WeatherTracker,2013-12-30 00:27:00,
2013-12-29 16:32:00,36.5,25.1,30.46,NW,312,0.0,0.0,63,0.00,,,0.00,WeatherTracker,2013-12-30 00:32:00,
2013-12-29 16:37:00,36.4,25.0,30.46,NW,312,0.0,0.0,63,0.00,,,0.00,WeatherTracker,2013-12-30 00:37:00,
2013-12-29 16:43:00,34.4,23.1,30.46,ESE,114,0.0,0.0,63,0.00,,,0.00,WeatherTracker,2013-12-30 00:43:00,
2013-12-29 16:48:00,34.4,23.1,30.46,ESE,108,0.0,0.0,63,0.00,,,0.00,WeatherTracker,2013-12-30 00:48:00,
2013-12-29 16:53:00,34.2,22.9,30.46,East,94,0.0,0.0,63,0.00,,,0.00,WeatherTracker,2013-12-30 00:53:00,
2013-12-29 16:58:00,34.0,22.7,30.46,East,91,0.0,0.0,63,0.00,,,0.00,WeatherTracker,2013-12-30 00:58:00,
2013-12-29 17:03:00,34.0,22.7,30.45,East,90,0.0,0.0,63,0.00,,,0.00,WeatherTracker,2013-12-30 01:03:00,
2013-12-29 17:08:00,33.7,22.5,30.46,East,90,0.0,0.0,63,0.00,,,0.00,WeatherTracker,2013-12-30 01:08:00,
2013-12-29 17:13:00,33.2,22.4,30.46,East,89,0.0,0.0,64,0.00,,,0.00,WeatherTracker,2013-12-30 01:13:00,
2013-12-29 17:18:00,32.9,22.1,30.46,East,79,0.0,0.0,64,0.00,,,0.00,WeatherTracker,2013-12-30 01:18:00,
2013-12-29 17:23:00,32.9,22.1,30.46,ENE,77,0.0,0.0,64,0.00,,,0.00,WeatherTracker,2013-12-30 01:23:00,
2013-12-29 17:28:00,32.9,22.1,30.46,ENE,76,0.0,0.0,64,0.00,,,0.00,WeatherTracker,2013-12-30 01:28:00,
2013-12-29 17:33:00,33.1,21.9,30.46,ENE,75,0.0,0.0,63,0.00,,,0.00,WeatherTracker,2013-12-30 01:33:00,
2013-12-29 17:35:00,33.2,22.0,30.46,ENE,71,0.0,0.0,63,0.00,,,0.00,WeatherTracker,2013-12-30 01:35:00,
2013-12-29 17:40:00,33.3,21.7,30.46,ENE,66,0.0,0.0,62,0.00,,,0.00,WeatherTracker,2013-12-30 01:40:00,
2013-12-29 17:45:00,33.0,21.4,30.46,ENE,66,0.0,0.0,62,0.00,,,0.00,WeatherTracker,2013-12-30 01:45:00,
2013-12-29 17:50:00,32.8,21.2,30.47,ENE,71,0.0,0.0,62,0.00,,,0.00,WeatherTracker,2013-12-30 01:50:00,
2013-12-29 17:55:00,32.8,21.2,30.47,ENE,71,0.0,0.0,62,0.00,,,0.00,WeatherTracker,2013-12-30 01:55:00,
2013-12-29 18:00:00,32.9,21.3,30.47,ENE,71,0.0,0.0,62,0.00,,,0.00,WeatherTracker,2013-12-30 02:00:00,
2013-12-29 18:05:00,32.8,21.2,30.47,ENE,71,0.0,0.0,62,0.00,,,0.00,WeatherTracker,2013-12-30 02:05:00,
2013-12-29 18:10:00,32.6,21.0,30.47,ENE,71,0.0,0.0,62,0.00,,,0.00,WeatherTracker,2013-12-30 02:10:00,
2013-12-29 18:15:00,32.5,20.9,30.47,ENE,71,0.0,0.0,62,0.00,,,0.00,WeatherTracker,2013-12-30 02:15:00,
2013-12-29 18:20:00,32.5,20.9,30.48,ENE,71,0.0,0.0,62,0.00,,,0.00,WeatherTracker,2013-12-30 02:20:00,
2013-12-29 18:25:00,32.7,20.8,30.48,ENE,71,0.0,0.0,61,0.00,,,0.00,WeatherTracker,2013-12-30 02:25:00,
2013-12-29 18:30:00,32.7,20.8,30.48,ENE,71,0.0,0.0,61,0.00,,,0.00,WeatherTracker,2013-12-30 02:30:00,
2013-12-29 18:35:00,32.4,20.9,30.48,ENE,66,0.0,0.0,62,0.00,,,0.00,WeatherTracker,2013-12-30 02:35:00,
2013-12-29 18:40:00,32.2,21.0,30.49,ENE,71,0.0,0.0,63,0.00,,,0.00,WeatherTracker,2013-12-30 02:40:00,
2013-12-29 18:45:00,32.2,21.0,30.49,ENE,71,0.0,0.0,63,0.00,,,0.00,WeatherTracker,2013-12-30 02:45:00,
2013-12-29 18:50:00,31.4,20.7,30.49,ENE,66,0.0,0.0,64,0.00,,,0.00,WeatherTracker,2013-12-30 02:50:00,
2013-12-29 18:56:00,31.1,20.4,30.49,ENE,66,0.0,0.0,64,0.00,,,0.00,WeatherTracker,2013-12-30 02:56:00,
2013-12-29 19:01:00,30.6,20.3,30.49,ENE,66,0.0,0.0,65,0.00,,,0.00,WeatherTracker,2013-12-30 03:01:00,
2013-12-29 19:06:00,31.0,20.6,30.49,ENE,66,0.0,0.0,65,0.00,,,0.00,WeatherTracker,2013-12-30 03:06:00,
2013-12-29 19:11:00,31.1,20.7,30.49,ENE,71,0.0,0.0,65,0.00,,,0.00,WeatherTracker,2013-12-30 03:11:00,
2013-12-29 19:16:00,31.0,20.6,30.50,ENE,66,0.0,0.0,65,0.00,,,0.00,WeatherTracker,2013-12-30 03:16:00,
2013-12-29 19:21:00,31.2,20.8,30.50,ENE,66,0.0,0.0,65,0.00,,,0.00,WeatherTracker,2013-12-30 03:21:00,
2013-12-29 19:26:00,31.4,21.0,30.50,ENE,61,0.0,0.0,65,0.00,,,0.00,WeatherTracker,2013-12-30 03:26:00,
2013-12-29 19:31:00,31.2,20.8,30.50,ENE,61,0.0,0.0,65,0.00,,,0.00,WeatherTracker,2013-12-30 03:31:00,
2013-12-29 19:36:00,31.0,20.6,30.50,ENE,61,0.0,0.0,65,0.00,,,0.00,WeatherTracker,2013-12-30 03:36:00,
2013-12-29 19:41:00,31.0,20.6,30.50,ENE,61,0.0,0.0,65,0.00,,,0.00,WeatherTracker,2013-12-30 03:41:00,
2013-12-29 19:46:00,30.9,20.5,30.50,ENE,61,0.0,0.0,65,0.00,,,0.00,WeatherTracker,2013-12-30 03:46:00,
2013-12-29 19:51:00,30.4,20.4,30.50,ENE,61,0.0,0.0,66,0.00,,,0.00,WeatherTracker,2013-12-30 03:51:00,
2013-12-29 19:56:00,30.1,20.1,30.50,ENE,61,0.0,0.0,66,0.00,,,0.00,WeatherTracker,2013-12-30 03:56:00,
2013-12-29 20:01:00,29.4,19.5,30.50,ENE,61,0.0,0.0,66,0.00,,,0.00,WeatherTracker,2013-12-30 04:01:00,
2013-12-29 20:06:00,29.4,19.5,30.50,ENE,61,0.0,0.0,66,0.00,,,0.00,WeatherTracker,2013-12-30 04:06:00,
2013-12-29 20:11:00,29.5,19.6,30.50,ENE,61,0.0,0.0,66,0.00,,,0.00,WeatherTracker,2013-12-30 04:11:00,
2013-12-29 20:16:00,29.3,19.7,30.50,ENE,61,0.0,0.0,67,0.00,,,0.00,WeatherTracker,2013-12-30 04:16:00,
2013-12-29 20:21:00,29.4,19.5,30.50,ENE,61,0.0,0.0,66,0.00,,,0.00,WeatherTracker,2013-12-30 04:21:00,
2013-12-29 20:26:00,29.7,19.8,30.50,ENE,61,0.0,0.0,66,0.00,,,0.00,WeatherTracker,2013-12-30 04:26:00,
2013-12-29 20:32:00,29.4,19.5,30.50,ENE,61,0.0,0.0,66,0.00,,,0.00,WeatherTracker,2013-12-30 04:32:00,
2013-12-29 20:37:00,29.3,19.7,30.50,ENE,61,0.0,0.0,67,0.00,,,0.00,WeatherTracker,2013-12-30 04:37:00,
2013-12-29 20:42:00,28.8,18.9,30.50,ENE,61,0.0,0.0,66,0.00,,,0.00,WeatherTracker,2013-12-30 04:42:00,
2013-12-29 20:47:00,29.3,19.4,30.50,ENE,61,0.0,0.0,66,0.00,,,0.00,WeatherTracker,2013-12-30 04:47:00,
2013-12-29 20:52:00,29.9,19.9,30.50,ENE,61,0.0,0.0,66,0.00,,,0.00,WeatherTracker,2013-12-30 04:52:00,
2013-12-29 20:57:00,29.6,19.7,30.50,ENE,61,0.0,0.0,66,0.00,,,0.00,WeatherTracker,2013-12-30 04:57:00,
2013-12-29 21:01:00,29.2,19.3,30.50,ENE,61,0.0,0.0,66,0.00,,,0.00,WeatherTracker,2013-12-30 05:01:00,
2013-12-29 21:02:00,29.1,19.5,30.50,ENE,61,0.0,0.0,67,0.00,,,0.00,WeatherTracker,2013-12-30 05:02:00,
2013-12-29 21:07:00,28.9,19.3,30.50,ENE,61,0.0,0.0,67,0.00,,,0.00,WeatherTracker,2013-12-30 05:07:00,
2013-12-29 21:12:00,28.6,19.1,30.50,ENE,61,0.0,0.0,67,0.00,,,0.00,WeatherTracker,2013-12-30 05:12:00,
2013-12-29 21:17:00,28.3,18.8,30.50,ENE,61,0.0,0.0,67,0.00,,,0.00,WeatherTracker,2013-12-30 05:17:00,
2013-12-29 21:22:00,28.3,18.8,30.50,ENE,61,0.0,0.0,67,0.00,,,0.00,WeatherTracker,2013-12-30 05:22:00,
2013-12-29 21:27:00,28.7,19.2,30.50,ENE,61,0.0,0.0,67,0.00,,,0.00,WeatherTracker,2013-12-30 05:27:00,
2013-12-29 21:32:00,28.2,18.7,30.51,ENE,61,0.0,0.0,67,0.00,,,0.00,WeatherTracker,2013-12-30 05:32:00,
2013-12-29 21:37:00,28.4,18.9,30.51,ENE,61,0.0,0.0,67,0.00,,,0.00,WeatherTracker,2013-12-30 05:37:00,
2013-12-29 21:42:00,28.3,18.8,30.51,ENE,66,0.0,0.0,67,0.00,,,0.00,WeatherTracker,2013-12-30 05:42:00,
2013-12-29 21:48:00,28.6,19.1,30.51,ENE,66,0.0,0.0,67,0.00,,,0.00,WeatherTracker,2013-12-30 05:48:00,
2013-12-29 21:53:00,28.5,19.0,30.51,ENE,66,0.0,0.0,67,0.00,,,0.00,WeatherTracker,2013-12-30 05:53:00,
2013-12-29 21:58:00,28.2,18.7,30.51,ENE,66,0.0,0.0,67,0.00,,,0.00,WeatherTracker,2013-12-30 05:58:00,
2013-12-29 22:03:00,28.3,18.8,30.51,ENE,66,0.0,0.0,67,0.00,,,0.00,WeatherTracker,2013-12-30 06:03:00,
2013-12-29 22:08:00,28.4,18.9,30.51,ENE,66,0.0,0.0,67,0.00,,,0.00,WeatherTracker,2013-12-30 06:08:00,
2013-12-29 22:13:00,28.1,18.6,30.51,ENE,66,0.0,0.0,67,0.00,,,0.00,WeatherTracker,2013-12-30 06:13:00,
2013-12-29 22:18:00,28.1,18.6,30.51,ENE,66,0.0,0.0,67,0.00,,,0.00,WeatherTracker,2013-12-30 06:18:00,
2013-12-29 22:23:00,28.1,18.6,30.51,ENE,66,0.0,0.0,67,0.00,,,0.00,WeatherTracker,2013-12-30 06:23:00,
2013-12-29 22:28:00,27.8,18.3,30.51,ENE,66,0.0,0.0,67,0.00,,,0.00,WeatherTracker,2013-12-30 06:28:00,
2013-12-29 22:33:00,28.1,18.6,30.51,ENE,66,0.0,0.0,67,0.00,,,0.00,WeatherTracker,2013-12-30 06:33:00,
2013-12-29 22:38:00,28.7,19.2,30.52,ENE,66,0.0,0.0,67,0.00,,,0.00,WeatherTracker,2013-12-30 06:38:00,
2013-12-29 22:43:00,28.7,19.2,30.52,ENE,66,0.0,0.0,67,0.00,,,0.00,WeatherTracker,2013-12-30 06:43:00,
2013-12-29 22:48:00,-999.0,-99.9,30.51,North,-999,-999.0,0.0,-999,0.00,,,0.00,WeatherTracker,2013-12-30 06:48:00,
2013-12-29 22:53:00,-999.0,-99.9,30.51,North,-999,-999.0,0.0,-999,0.00,,,0.00,WeatherTracker,2013-12-30 06:53:00,
2013-12-29 22:58:00,-999.0,-99.9,30.51,North,-999,-999.0,0.0,-999,0.00,,,0.00,WeatherTracker,2013-12-30 06:58:00,
2013-12-29 23:03:00,-999.0,-99.9,30.51,North,-999,-999.0,0.0,-999,0.00,,,0.00,WeatherTracker,2013-12-30 07:03:00,
2013-12-29 23:08:00,-999.0,-99.9,30.50,North,-999,-999.0,0.0,-999,0.00,,,0.00,WeatherTracker,2013-12-30 07:08:00,
2013-12-29 23:13:00,-999.0,-99.9,30.50,North,-999,-999.0,0.0,-999,0.00,,,0.00,WeatherTracker,2013-12-30 07:13:00,
2013-12-29 23:18:00,-999.0,-99.9,30.50,North,-999,-999.0,0.0,-999,0.00,,,0.00,WeatherTracker,2013-12-30 07:18:00,
2013-12-29 23:23:00,-999.0,-99.9,30.50,North,-999,-999.0,0.0,-999,0.00,,,0.00,WeatherTracker,2013-12-30 07:23:00,
2013-12-29 23:28:00,-999.0,-99.9,30.50,North,-999,-999.0,0.0,-999,0.00,,,0.00,WeatherTracker,2013-12-30 07:28:00,
2013-12-29 23:33:00,-999.0,-99.9,30.50,North,-999,-999.0,0.0,-999,0.00,,,0.00,WeatherTracker,2013-12-30 07:33:00,
2013-12-29 23:38:00,-999.0,-99.9,30.49,North,-999,-999.0,0.0,-999,0.00,,,0.00,WeatherTracker,2013-12-30 07:38:00,
2013-12-29 23:43:00,-999.0,-99.9,30.49,North,-999,-999.0,0.0,-999,0.00,,,0.00,WeatherTracker,2013-12-30 07:43:00,
2013-12-29 23:48:00,-999.0,-99.9,30.49,North,-999,-999.0,0.0,-999,0.00,,,0.00,WeatherTracker,2013-12-30 07:48:00,
2013-12-29 23:53:00,-999.0,-99.9,30.49,North,-999,-999.0,0.0,-999,0.00,,,0.00,WeatherTracker,2013-12-30 07:53:00,
2013-12-29 23:58:00,-999.0,-99.9,30.49,North,-999,-999.0,0.0,-999,0.00,,,0.00,WeatherTracker,2013-12-30 07:58:00,